• Join FlightAware (Why Join?)
  • Login
  • US Flag 
03:35PM EDT


 

Airport Tracker/Info


-or-


 

Live Flight TrackerFlight Track Log ✈ THY1998 ✈ 09-May-2013 ✈ EGKK / LGW - LTBA / IST

Flight Track Log - Related Links

Times and Time Zones

All times are in EDT time to prevent confusion due to time zone crossing. See the THY1998 flight status page for this flight to view local times or setup timezone preferences in your user account.

Time Position Orientation Groundspeed Altitude Reporting Facility
EDT Latitude Longitude Course Direction KTS MPH feet Rate Location/Type
11:03AM 50.8732 1.3069 106° East  Level Estimated
11:04AM 50.8414 1.4722 107° East  Level Estimated
11:05AM 50.8095 1.6372 107° East  Level Estimated
11:06AM 50.7773 1.8020 107° East  Level Estimated
11:07AM 50.7449 1.9666 107° East  Level Estimated
11:08AM 50.7122 2.1309 107° East  Level Estimated
11:09AM 50.6794 2.2951 107° East  Level Estimated
11:10AM 50.6463 2.4589 108° East  Level Estimated
11:11AM 50.6129 2.6226 108° East  Level Estimated
11:12AM 50.5793 2.7860 108° East  Level Estimated
11:13AM 50.5456 2.9492 108° East  Level Estimated
11:14AM 50.5115 3.1121 108° East  Level Estimated
11:15AM 50.4773 3.2749 108° East  Level Estimated
11:16AM 50.4428 3.4374 108° East  Level Estimated
11:17AM 50.4081 3.5996 108° East  Level Estimated
11:18AM 50.3732 3.7616 109° East  Level Estimated
11:19AM 50.3380 3.9234 109° East  Level Estimated
11:20AM 50.3026 4.0849 109° East  Level Estimated
11:21AM 50.2670 4.2462 109° East  Level Estimated
11:22AM 50.2312 4.4072 109° East  Level Estimated
11:23AM 50.1952 4.5680 109° East  Level Estimated
11:24AM 50.1589 4.7286 109° East  Level Estimated
11:25AM 50.1224 4.8889 109° East  Level Estimated
11:26AM 50.0857 5.0490 110° East  Level Estimated
11:27AM 50.0488 5.2088 110° East  Level Estimated
11:28AM 50.0116 5.3684 110° East  Level Estimated
11:29AM 49.9743 5.5277 110° East  Level Estimated
11:30AM 49.9367 5.6868 110° East  Level Estimated
11:31AM 49.8989 5.8456 110° East  Level Estimated
11:32AM 49.8609 6.0042 110° East  Level Estimated
11:33AM 49.8226 6.1625 110° East  Level Estimated
11:34AM 49.7842 6.3206 111° Southeast  Level Estimated
11:35AM 49.7455 6.4784 111° Southeast  Level Estimated
11:36AM 49.7066 6.6360 111° Southeast  Level Estimated
11:37AM 49.6675 6.7933 111° Southeast  Level Estimated
11:38AM 49.6283 6.9504 111° Southeast  Level Estimated
11:39AM 49.5887 7.1072 111° Southeast  Level Estimated
11:40AM 49.5490 7.2638 111° Southeast  Level Estimated
11:41AM 49.5091 7.4201 111° Southeast  Level Estimated
11:42AM 49.4689 7.5761 112° Southeast  Level Estimated
11:43AM 49.4286 7.7319 112° Southeast  Level Estimated
11:44AM 49.3880 7.8875 112° Southeast  Level Estimated
11:45AM 49.3472 8.0428 112° Southeast  Level Estimated
11:46AM 49.3062 8.1978 112° Southeast  Level Estimated
11:47AM 49.2650 8.3525 112° Southeast  Level Estimated
11:48AM 49.2236 8.5071 112° Southeast  Level Estimated
11:49AM 49.1820 8.6613 112° Southeast  Level Estimated
11:50AM 49.1402 8.8153 112° Southeast  Level Estimated
11:51AM 49.0982 8.9690 113° Southeast  Level Estimated
11:52AM 49.0560 9.1225 113° Southeast  Level Estimated
11:53AM 49.0107 9.2861 113° Southeast  Level Estimated
11:54AM 48.9652 9.4493 113° Southeast  Level Estimated
11:55AM 48.9194 9.6123 113° Southeast  Level Estimated
11:56AM 48.8734 9.7750 113° Southeast  Level Estimated
11:57AM 48.8272 9.9374 113° Southeast  Level Estimated
11:58AM 48.7808 10.0995 113° Southeast  Level Estimated
11:59AM 48.7341 10.2612 114° Southeast  Level Estimated
12:00PM 48.6872 10.4227 114° Southeast  Level Estimated
12:01PM 48.6401 10.5839 114° Southeast  Level Estimated
12:02PM 48.5927 10.7447 114° Southeast  Level Estimated
12:03PM 48.5452 10.9053 114° Southeast  Level Estimated
12:04PM 48.4974 11.0656 114° Southeast  Level Estimated
12:05PM 48.4494 11.2255 114° Southeast  Level Estimated
12:06PM 48.4011 11.3852 114° Southeast  Level Estimated
12:07PM 48.3527 11.5446 115° Southeast  Level Estimated
12:08PM 48.3040 11.7036 115° Southeast  Level Estimated
12:09PM 48.2551 11.8624 115° Southeast  Level Estimated
12:10PM 48.2060 12.0208 115° Southeast  Level Estimated
12:11PM 48.1567 12.1790 115° Southeast  Level Estimated
12:12PM 48.1071 12.3368 115° Southeast  Level Estimated
12:13PM 48.0573 12.4943 115° Southeast  Level Estimated
12:14PM 48.0074 12.6516 115° Southeast  Level Estimated
12:15PM 47.9572 12.8085 115° Southeast  Level Estimated
12:16PM 47.9068 12.9651 116° Southeast  Level Estimated
12:17PM 47.8562 13.1214 116° Southeast  Level Estimated
12:18PM 47.8053 13.2774 116° Southeast  Level Estimated
12:19PM 47.7543 13.4331 116° Southeast  Level Estimated
12:20PM 47.7030 13.5885 116° Southeast  Level Estimated
12:21PM 47.6516 13.7436 116° Southeast  Level Estimated
12:22PM 47.5999 13.8984 116° Southeast  Level Estimated
12:23PM 47.5480 14.0529 116° Southeast  Level Estimated
12:24PM 47.4959 14.2070 117° Southeast  Level Estimated
12:25PM 47.4436 14.3609 117° Southeast  Level Estimated
12:26PM 47.3912 14.5145 117° Southeast  Level Estimated
12:27PM 47.3385 14.6677 117° Southeast  Level Estimated
12:28PM 47.2856 14.8207 117° Southeast  Level Estimated
12:29PM 47.2324 14.9733 117° Southeast  Level Estimated
12:30PM 47.1791 15.1257 117° Southeast  Level Estimated
12:31PM 47.1256 15.2777 117° Southeast  Level Estimated
12:32PM 47.0719 15.4294 117° Southeast  Level Estimated
12:33PM 47.0180 15.5808 118° Southeast  Level Estimated
12:34PM 46.9639 15.7319 118° Southeast  Level Estimated
12:35PM 46.9096 15.8827 118° Southeast  Level Estimated
12:36PM 46.8551 16.0332 118° Southeast  Level Estimated
12:37PM 46.8004 16.1834 118° Southeast  Level Estimated
12:38PM 46.7455 16.3333 118° Southeast  Level Estimated
12:39PM 46.6904 16.4829 118° Southeast  Level Estimated
12:40PM 46.6351 16.6322 118° Southeast  Level Estimated
12:41PM 46.5796 16.7812 118° Southeast  Level Estimated
12:42PM 46.5239 16.9298 119° Southeast  Level Estimated
12:43PM 46.4681 17.0782 119° Southeast  Level Estimated
12:44PM 46.4120 17.2262 119° Southeast  Level Estimated
12:45PM 46.3558 17.3740 119° Southeast  Level Estimated
12:46PM 46.2993 17.5214 119° Southeast  Level Estimated
12:47PM 46.2427 17.6686 119° Southeast  Level Estimated
12:48PM 46.1859 17.8154 119° Southeast  Level Estimated
12:49PM 46.1289 17.9620 119° Southeast  Level Estimated
12:50PM 46.0717 18.1082 119° Southeast  Level Estimated
12:51PM 46.0143 18.2541 119° Southeast  Level Estimated
12:52PM 45.9567 18.3997 120° Southeast  Level Estimated
12:53PM 45.8990 18.5451 120° Southeast  Level Estimated
12:54PM 45.8411 18.6901 120° Southeast  Level Estimated
12:55PM 45.7830 18.8348 120° Southeast  Level Estimated
12:56PM 45.7247 18.9792 120° Southeast  Level Estimated
12:57PM 45.6662 19.1234 120° Southeast  Level Estimated
12:58PM 45.6075 19.2672 120° Southeast  Level Estimated
12:59PM 45.5487 19.4107 120° Southeast  Level Estimated
01:00PM 45.4897 19.5539 120° Southeast  Level Estimated
01:01PM 45.4305 19.6968 121° Southeast  Level Estimated
01:02PM 45.3711 19.8394 121° Southeast  Level Estimated
01:03PM 45.3115 19.9817 121° Southeast  Level Estimated
01:04PM 45.2518 20.1237 121° Southeast  Level Estimated
01:05PM 45.1919 20.2654 121° Southeast  Level Estimated
01:06PM 45.1318 20.4069 121° Southeast  Level Estimated
01:07PM 45.0716 20.5480 121° Southeast  Level Estimated
01:08PM 45.0111 20.6888 121° Southeast  Level Estimated
01:09PM 44.9505 20.8293 121° Southeast  Level Estimated
01:10PM 44.8898 20.9695 121° Southeast  Level Estimated
01:11PM 44.8288 21.1095 122° Southeast  Level Estimated
01:12PM 44.7677 21.2491 122° Southeast  Level Estimated
01:13PM 44.7064 21.3885 122° Southeast  Level Estimated
01:14PM 44.6450 21.5275 122° Southeast  Level Estimated
01:15PM 44.5834 21.6662 122° Southeast  Level Estimated
01:16PM 44.5216 21.8047 122° Southeast  Level Estimated
01:17PM 44.4596 21.9429 122° Southeast  Level Estimated
01:18PM 44.3975 22.0807 122° Southeast  Level Estimated
01:19PM 44.3352 22.2183 122° Southeast  Level Estimated
01:20PM 44.2728 22.3556 122° Southeast  Level Estimated
01:21PM 44.2102 22.4926 122° Southeast  Level Estimated
01:22PM 44.1474 22.6293 123° Southeast  Level Estimated
01:23PM 44.0844 22.7657 123° Southeast  Level Estimated
01:24PM 44.0213 22.9018 123° Southeast  Level Estimated
01:25PM 43.9581 23.0376 123° Southeast  Level Estimated
01:26PM 43.8946 23.1732 123° Southeast  Level Estimated
01:27PM 43.8311 23.3084 123° Southeast  Level Estimated
01:28PM 43.7673 23.4434 123° Southeast  Level Estimated
01:29PM 43.7034 23.5781 123° Southeast  Level Estimated
01:30PM 43.6394 23.7124 123° Southeast  Level Estimated
01:31PM 43.5751 23.8465 123° Southeast  Level Estimated
01:32PM 43.5108 23.9804 124° Southeast  Level Estimated
01:33PM 43.4463 24.1139 124° Southeast  Level Estimated
01:34PM 43.3816 24.2471 124° Southeast  Level Estimated
01:35PM 43.3167 24.3801 124° Southeast  Level Estimated
01:36PM 43.2517 24.5128 124° Southeast  Level Estimated
01:37PM 43.1866 24.6451 124° Southeast  Level Estimated
01:38PM 43.1213 24.7773 124° Southeast  Level Estimated
01:39PM 43.0558 24.9091 124° Southeast  Level Estimated
01:40PM 42.9902 25.0406 124° Southeast  Level Estimated
01:41PM 42.9245 25.1719 124° Southeast  Level Estimated
01:42PM 42.8586 25.3029 124° Southeast  Level Estimated
01:43PM 42.7925 25.4336 125° Southeast  Level Estimated
01:44PM 42.7263 25.5640 125° Southeast  Level Estimated
01:45PM 42.6600 25.6942 125° Southeast  Level Estimated
01:46PM 42.5935 25.8241 125° Southeast  Level Estimated
01:47PM 42.5269 25.9536 125° Southeast  Level Estimated
01:48PM 42.4601 26.0830 125° Southeast  Level Estimated
01:49PM 42.3932 26.2120 125° Southeast  Level Estimated
01:50PM 42.3261 26.3408 125° Southeast  Level Estimated
01:51PM 42.2589 26.4693 125° Southeast  Level Estimated
01:52PM 42.1915 26.5975 125° Southeast  Level Estimated
01:53PM 42.1240 26.7254 125° Southeast  Level Estimated
01:54PM 42.0564 26.8531 125° Southeast  Level Estimated
01:55PM 41.9886 26.9805 126° Southeast  Level Estimated
01:56PM 41.9206 27.1076 126° Southeast  Level Estimated
01:57PM 41.8526 27.2345 126° Southeast  Level Estimated
01:58PM 41.7844 27.3611 126° Southeast  Level Estimated
01:59PM 41.7160 27.4874 126° Southeast  Level Estimated
02:00PM 41.6475 27.6134 126° Southeast  Level Estimated
02:01PM 41.5789 27.7392 126° Southeast  Level Estimated
02:02PM 41.5102 27.8647 126° Southeast  Level Estimated
02:03PM 41.4413 27.9900 126° Southeast  Level Estimated
02:04PM 41.3722 28.1150 126° Southeast  Level Estimated
02:05PM 41.3031 28.2397 126° Southeast  Level Estimated
02:06PM 41.2338 28.3641 126° Southeast  Level Estimated
02:07PM 41.1643 28.4883 127° Southeast  Level Estimated
02:08PM 41.0948 28.6122 127° Southeast  Level Estimated
02:09PM 41.0251 28.7359 127° Southeast  Level Estimated
02:10PM 40.9769 28.8211 127° Southeast  Level Estimated
02:11PM 40.9769 28.8211 21° North  Level Estimated
02:12PM 40.9769 28.8211 21° North  Level Estimated
02:13PM 40.9769 28.8211 21° North  Level Estimated
02:14PM 40.9769 28.8211 21° North  Level Estimated
02:15PM 40.9769 28.8211 21° North  Level Estimated
02:16PM 40.9769 28.8211 21° North  Level Estimated
02:17PM 40.9769 28.8211 21° North  Level Estimated
02:18PM 40.9769 28.8211 21° North  Level Estimated
02:19PM 40.9769 28.8211 21° North  Level Estimated
02:20PM 40.9769 28.8211 21° North  Level Estimated
02:21PM 40.9769 28.8211 21° North  Level Estimated
02:22PM 40.9769 28.8211 21° North  Level Estimated